sensor_id;sensor_type;location;lat;lon;timestamp;P1;durP1;ratioP1;P2;durP2;ratioP2
10056;SDS011;5068;51.286;7.518;2023-04-24T00:00:11;1.10;;;0.10;;
10056;SDS011;5068;51.286;7.518;2023-04-24T00:01:46;0.50;;;0.20;;
10056;SDS011;5068;51.286;7.518;2023-04-24T00:03:19;0.85;;;0.20;;
10056;SDS011;5068;51.286;7.518;2023-04-24T00:04:53;0.30;;;0.10;;
10056;SDS011;5068;51.286;7.518;2023-04-24T00:06:26;0.40;;;0.10;;
10056;SDS011;5068;51.286;7.518;2023-04-24T00:08:04;1.15;;;0.20;;
10056;SDS011;5068;51.286;7.518;2023-04-24T00:09:37;1.15;;;0.17;;
10056;SDS011;5068;51.286;7.518;2023-04-24T00:11:11;0.28;;;0.10;;
10056;SDS011;5068;51.286;7.518;2023-04-24T00:12:43;0.20;;;0.10;;
10056;SDS011;5068;51.286;7.518;2023-04-24T00:14:18;1.20;;;0.20;;
10056;SDS011;5068;51.286;7.518;2023-04-24T00:15:51;0.93;;;0.20;;
10056;SDS011;5068;51.286;7.518;2023-04-24T00:17:23;0.30;;;0.20;;
10056;SDS011;5068;51.286;7.518;2023-04-24T00:18:57;0.45;;;0.10;;
10056;SDS011;5068;51.286;7.518;2023-04-24T00:20:29;0.25;;;0.10;;
10056;SDS011;5068;51.286;7.518;2023-04-24T00:22:03;0.30;;;0.20;;
10056;SDS011;5068;51.286;7.518;2023-04-24T00:23:37;1.30;;;0.20;;
10056;SDS011;5068;51.286;7.518;2023-04-24T00:25:10;0.45;;;0.20;;
10056;SDS011;5068;51.286;7.518;2023-04-24T00:26:43;0.40;;;0.20;;
10056;SDS011;5068;51.286;7.518;2023-04-24T00:28:16;0.80;;;0.22;;
10056;SDS011;5068;51.286;7.518;2023-04-24T00:29:51;0.25;;;0.20;;
10056;SDS011;5068;51.286;7.518;2023-04-24T00:31:24;1.23;;;0.30;;
10056;SDS011;5068;51.286;7.518;2023-04-24T00:32:57;1.85;;;0.20;;
10056;SDS011;5068;51.286;7.518;2023-04-24T00:34:30;0.77;;;0.20;;
10056;SDS011;5068;51.286;7.518;2023-04-24T00:36:04;0.43;;;0.10;;
10056;SDS011;5068;51.286;7.518;2023-04-24T00:37:38;1.48;;;0.20;;
10056;SDS011;5068;51.286;7.518;2023-04-24T00:39:12;0.30;;;0.10;;
10056;SDS011;5068;51.286;7.518;2023-04-24T00:40:47;0.40;;;0.10;;
10056;SDS011;5068;51.286;7.518;2023-04-24T00:42:21;0.60;;;0.30;;
10056;SDS011;5068;51.286;7.518;2023-04-24T00:43:55;0.60;;;0.28;;
10056;SDS011;5068;51.286;7.518;2023-04-24T00:45:29;0.88;;;0.10;;
10056;SDS011;5068;51.286;7.518;2023-04-24T00:47:03;0.40;;;0.25;;
10056;SDS011;5068;51.286;7.518;2023-04-24T00:48:37;0.20;;;0.00;;
10056;SDS011;5068;51.286;7.518;2023-04-24T00:50:12;0.30;;;0.10;;
10056;SDS011;5068;51.286;7.518;2023-04-24T00:51:47;1.00;;;0.30;;
10056;SDS011;5068;51.286;7.518;2023-04-24T00:53:22;0.32;;;0.20;;
10056;SDS011;5068;51.286;7.518;2023-04-24T00:54:56;0.38;;;0.20;;
10056;SDS011;5068;51.286;7.518;2023-04-24T00:56:29;0.70;;;0.20;;
10056;SDS011;5068;51.286;7.518;2023-04-24T00:58:03;0.40;;;0.17;;
10056;SDS011;5068;51.286;7.518;2023-04-24T00:59:37;0.50;;;0.20;;
10056;SDS011;5068;51.286;7.518;2023-04-24T01:01:11;0.30;;;0.10;;
10056;SDS011;5068;51.286;7.518;2023-04-24T01:02:45;0.32;;;0.15;;
10056;SDS011;5068;51.286;7.518;2023-04-24T01:04:19;0.30;;;0.15;;
10056;SDS011;5068;51.286;7.518;2023-04-24T01:05:53;0.98;;;0.40;;
10056;SDS011;5068;51.286;7.518;2023-04-24T01:07:28;0.25;;;0.05;;
10056;SDS011;5068;51.286;7.518;2023-04-24T01:09:02;1.67;;;0.20;;
10056;SDS011;5068;51.286;7.518;2023-04-24T01:10:36;1.15;;;0.30;;
10056;SDS011;5068;51.286;7.518;2023-04-24T01:12:13;0.63;;;0.30;;
10056;SDS011;5068;51.286;7.518;2023-04-24T01:13:48;0.52;;;0.20;;
10056;SDS011;5068;51.286;7.518;2023-04-24T01:15:22;0.30;;;0.10;;
10056;SDS011;5068;51.286;7.518;2023-04-24T01:16:56;0.88;;;0.20;;
10056;SDS011;5068;51.286;7.518;2023-04-24T01:18:31;1.00;;;0.20;;
10056;SDS011;5068;51.286;7.518;2023-04-24T01:20:05;0.45;;;0.25;;
10056;SDS011;5068;51.286;7.518;2023-04-24T01:21:38;1.50;;;0.20;;
10056;SDS011;5068;51.286;7.518;2023-04-24T01:24:48;0.32;;;0.20;;
10056;SDS011;5068;51.286;7.518;2023-04-24T01:26:20;1.13;;;0.40;;
10056;SDS011;5068;51.286;7.518;2023-04-24T01:27:56;0.63;;;0.25;;
10056;SDS011;5068;51.286;7.518;2023-04-24T01:29:30;0.50;;;0.20;;
10056;SDS011;5068;51.286;7.518;2023-04-24T01:31:04;0.30;;;0.15;;
10056;SDS011;5068;51.286;7.518;2023-04-24T01:32:37;0.55;;;0.30;;
10056;SDS011;5068;51.286;7.518;2023-04-24T01:34:11;1.15;;;0.30;;
10056;SDS011;5068;51.286;7.518;2023-04-24T01:35:44;0.73;;;0.20;;
10056;SDS011;5068;51.286;7.518;2023-04-24T01:37:18;0.88;;;0.40;;
10056;SDS011;5068;51.286;7.518;2023-04-24T01:38:52;1.20;;;0.38;;
10056;SDS011;5068;51.286;7.518;2023-04-24T01:40:25;0.40;;;0.25;;
10056;SDS011;5068;51.286;7.518;2023-04-24T01:41:57;0.70;;;0.30;;
10056;SDS011;5068;51.286;7.518;2023-04-24T01:43:31;0.50;;;0.30;;
10056;SDS011;5068;51.286;7.518;2023-04-24T01:45:05;0.40;;;0.30;;
10056;SDS011;5068;51.286;7.518;2023-04-24T01:46:41;0.57;;;0.38;;
10056;SDS011;5068;51.286;7.518;2023-04-24T01:48:15;0.50;;;0.30;;
10056;SDS011;5068;51.286;7.518;2023-04-24T01:49:48;1.15;;;0.30;;
10056;SDS011;5068;51.286;7.518;2023-04-24T01:51:22;0.60;;;0.40;;
10056;SDS011;5068;51.286;7.518;2023-04-24T01:52:55;0.52;;;0.35;;
10056;SDS011;5068;51.286;7.518;2023-04-24T01:54:30;0.90;;;0.50;;
10056;SDS011;5068;51.286;7.518;2023-04-24T01:56:03;0.85;;;0.50;;
10056;SDS011;5068;51.286;7.518;2023-04-24T01:57:37;2.80;;;0.50;;
10056;SDS011;5068;51.286;7.518;2023-04-24T01:59:12;0.80;;;0.50;;
10056;SDS011;5068;51.286;7.518;2023-04-24T02:00:46;0.75;;;0.40;;
10056;SDS011;5068;51.286;7.518;2023-04-24T02:02:19;1.02;;;0.65;;
10056;SDS011;5068;51.286;7.518;2023-04-24T02:03:55;1.27;;;0.50;;
10056;SDS011;5068;51.286;7.518;2023-04-24T02:05:28;0.80;;;0.50;;
10056;SDS011;5068;51.286;7.518;2023-04-24T02:07:02;1.30;;;0.60;;
10056;SDS011;5068;51.286;7.518;2023-04-24T02:08:36;1.33;;;0.70;;
10056;SDS011;5068;51.286;7.518;2023-04-24T02:10:11;1.45;;;1.00;;
10056;SDS011;5068;51.286;7.518;2023-04-24T02:11:46;1.20;;;0.55;;
10056;SDS011;5068;51.286;7.518;2023-04-24T02:13:19;0.98;;;0.50;;
10056;SDS011;5068;51.286;7.518;2023-04-24T02:14:52;1.67;;;0.55;;
10056;SDS011;5068;51.286;7.518;2023-04-24T02:16:25;1.45;;;0.70;;
10056;SDS011;5068;51.286;7.518;2023-04-24T02:17:58;1.00;;;0.65;;
10056;SDS011;5068;51.286;7.518;2023-04-24T02:19:32;1.00;;;0.63;;
10056;SDS011;5068;51.286;7.518;2023-04-24T02:21:05;0.88;;;0.55;;
10056;SDS011;5068;51.286;7.518;2023-04-24T02:22:37;0.82;;;0.70;;
10056;SDS011;5068;51.286;7.518;2023-04-24T02:24:11;1.13;;;1.00;;
10056;SDS011;5068;51.286;7.518;2023-04-24T02:25:44;2.03;;;0.75;;
10056;SDS011;5068;51.286;7.518;2023-04-24T02:27:18;1.45;;;0.60;;
10056;SDS011;5068;51.286;7.518;2023-04-24T02:28:51;1.80;;;0.73;;
10056;SDS011;5068;51.286;7.518;2023-04-24T02:30:24;1.20;;;0.85;;
10056;SDS011;5068;51.286;7.518;2023-04-24T02:31:58;1.70;;;0.85;;
10056;SDS011;5068;51.286;7.518;2023-04-24T02:33:31;1.77;;;1.10;;
10056;SDS011;5068;51.286;7.518;2023-04-24T02:35:05;1.67;;;1.00;;
10056;SDS011;5068;51.286;7.518;2023-04-24T02:36:39;1.02;;;0.73;;
10056;SDS011;5068;51.286;7.518;2023-04-24T02:38:12;1.13;;;0.85;;
10056;SDS011;5068;51.286;7.518;2023-04-24T02:39:47;1.17;;;0.75;;
10056;SDS011;5068;51.286;7.518;2023-04-24T02:41:22;1.40;;;0.90;;
10056;SDS011;5068;51.286;7.518;2023-04-24T02:42:55;3.42;;;1.20;;
10056;SDS011;5068;51.286;7.518;2023-04-24T02:44:28;1.30;;;0.70;;
10056;SDS011;5068;51.286;7.518;2023-04-24T02:46:01;1.60;;;1.00;;
10056;SDS011;5068;51.286;7.518;2023-04-24T02:47:35;2.20;;;1.15;;
10056;SDS011;5068;51.286;7.518;2023-04-24T02:49:07;1.48;;;0.90;;
10056;SDS011;5068;51.286;7.518;2023-04-24T02:50:40;1.65;;;1.10;;
10056;SDS011;5068;51.286;7.518;2023-04-24T02:52:14;2.13;;;1.10;;
10056;SDS011;5068;51.286;7.518;2023-04-24T02:53:48;1.63;;;0.90;;
10056;SDS011;5068;51.286;7.518;2023-04-24T02:55:21;2.15;;;1.25;;
10056;SDS011;5068;51.286;7.518;2023-04-24T02:56:56;2.17;;;1.10;;
10056;SDS011;5068;51.286;7.518;2023-04-24T02:58:29;3.03;;;1.30;;
10056;SDS011;5068;51.286;7.518;2023-04-24T03:00:02;2.13;;;1.48;;
10056;SDS011;5068;51.286;7.518;2023-04-24T03:01:38;1.70;;;1.30;;
10056;SDS011;5068;51.286;7.518;2023-04-24T03:03:12;2.25;;;1.40;;
10056;SDS011;5068;51.286;7.518;2023-04-24T03:04:45;1.80;;;1.23;;
10056;SDS011;5068;51.286;7.518;2023-04-24T03:06:19;2.42;;;1.88;;
10056;SDS011;5068;51.286;7.518;2023-04-24T03:07:53;1.90;;;1.70;;
10056;SDS011;5068;51.286;7.518;2023-04-24T03:09:26;1.90;;;1.38;;
10056;SDS011;5068;51.286;7.518;2023-04-24T03:10:58;2.58;;;1.45;;
10056;SDS011;5068;51.286;7.518;2023-04-24T03:12:33;2.05;;;1.60;;
10056;SDS011;5068;51.286;7.518;2023-04-24T03:14:06;2.50;;;1.52;;
10056;SDS011;5068;51.286;7.518;2023-04-24T03:15:41;2.35;;;1.60;;
10056;SDS011;5068;51.286;7.518;2023-04-24T03:17:15;2.70;;;1.83;;
10056;SDS011;5068;51.286;7.518;2023-04-24T03:18:48;3.17;;;2.00;;
10056;SDS011;5068;51.286;7.518;2023-04-24T03:20:22;3.28;;;1.88;;
10056;SDS011;5068;51.286;7.518;2023-04-24T03:21:56;3.45;;;1.83;;
10056;SDS011;5068;51.286;7.518;2023-04-24T03:23:29;3.83;;;2.10;;
10056;SDS011;5068;51.286;7.518;2023-04-24T03:25:03;4.10;;;2.70;;
10056;SDS011;5068;51.286;7.518;2023-04-24T03:26:37;3.15;;;2.20;;
10056;SDS011;5068;51.286;7.518;2023-04-24T03:28:39;4.05;;;1.52;;
10056;SDS011;5068;51.286;7.518;2023-04-24T03:30:12;3.47;;;2.13;;
10056;SDS011;5068;51.286;7.518;2023-04-24T03:31:51;3.45;;;2.08;;
10056;SDS011;5068;51.286;7.518;2023-04-24T03:33:24;3.17;;;2.42;;
10056;SDS011;5068;51.286;7.518;2023-04-24T03:35:05;3.90;;;2.10;;
10056;SDS011;5068;51.286;7.518;2023-04-24T03:36:45;4.93;;;2.40;;
10056;SDS011;5068;51.286;7.518;2023-04-24T03:38:19;3.85;;;2.80;;
10056;SDS011;5068;51.286;7.518;2023-04-24T03:40:00;3.35;;;2.65;;
10056;SDS011;5068;51.286;7.518;2023-04-24T03:41:33;4.82;;;2.88;;
10056;SDS011;5068;51.286;7.518;2023-04-24T03:43:13;4.47;;;2.63;;
10056;SDS011;5068;51.286;7.518;2023-04-24T03:44:47;5.05;;;3.00;;
10056;SDS011;5068;51.286;7.518;2023-04-24T03:47:58;3.25;;;2.95;;
10056;SDS011;5068;51.286;7.518;2023-04-24T03:49:32;3.85;;;2.92;;
10056;SDS011;5068;51.286;7.518;2023-04-24T03:51:06;4.90;;;3.58;;
10056;SDS011;5068;51.286;7.518;2023-04-24T03:52:41;5.03;;;3.22;;
10056;SDS011;5068;51.286;7.518;2023-04-24T03:54:16;4.68;;;3.33;;
10056;SDS011;5068;51.286;7.518;2023-04-24T03:55:50;4.82;;;3.63;;
10056;SDS011;5068;51.286;7.518;2023-04-24T03:57:23;4.50;;;3.47;;
10056;SDS011;5068;51.286;7.518;2023-04-24T03:59:11;5.68;;;3.08;;
10056;SDS011;5068;51.286;7.518;2023-04-24T04:00:49;5.97;;;3.42;;
10056;SDS011;5068;51.286;7.518;2023-04-24T04:02:45;6.00;;;3.72;;
10056;SDS011;5068;51.286;7.518;2023-04-24T04:04:19;4.75;;;3.00;;
10056;SDS011;5068;51.286;7.518;2023-04-24T04:05:51;4.57;;;3.22;;
10056;SDS011;5068;51.286;7.518;2023-04-24T04:07:25;4.78;;;3.58;;
10056;SDS011;5068;51.286;7.518;2023-04-24T04:08:59;4.95;;;3.35;;
10056;SDS011;5068;51.286;7.518;2023-04-24T04:10:33;5.15;;;3.03;;
10056;SDS011;5068;51.286;7.518;2023-04-24T04:12:08;4.70;;;2.92;;
10056;SDS011;5068;51.286;7.518;2023-04-24T04:13:42;4.93;;;3.28;;
10056;SDS011;5068;51.286;7.518;2023-04-24T04:15:17;5.10;;;3.20;;
10056;SDS011;5068;51.286;7.518;2023-04-24T04:16:52;5.43;;;3.38;;
10056;SDS011;5068;51.286;7.518;2023-04-24T04:18:25;5.55;;;4.03;;
10056;SDS011;5068;51.286;7.518;2023-04-24T04:19:59;8.10;;;3.33;;
10056;SDS011;5068;51.286;7.518;2023-04-24T04:21:32;5.15;;;3.30;;
10056;SDS011;5068;51.286;7.518;2023-04-24T04:23:15;4.32;;;3.20;;
10056;SDS011;5068;51.286;7.518;2023-04-24T04:25:07;3.97;;;3.03;;
10056;SDS011;5068;51.286;7.518;2023-04-24T04:26:40;3.90;;;2.90;;
10056;SDS011;5068;51.286;7.518;2023-04-24T04:28:29;6.00;;;3.58;;
10056;SDS011;5068;51.286;7.518;2023-04-24T04:30:03;4.53;;;3.47;;
10056;SDS011;5068;51.286;7.518;2023-04-24T04:31:46;4.10;;;3.22;;
10056;SDS011;5068;51.286;7.518;2023-04-24T04:33:21;4.93;;;3.10;;
10056;SDS011;5068;51.286;7.518;2023-04-24T04:34:54;5.10;;;2.95;;
10056;SDS011;5068;51.286;7.518;2023-04-24T04:36:31;5.18;;;3.03;;
10056;SDS011;5068;51.286;7.518;2023-04-24T04:38:22;3.70;;;3.00;;
10056;SDS011;5068;51.286;7.518;2023-04-24T04:40:03;6.05;;;3.53;;
10056;SDS011;5068;51.286;7.518;2023-04-24T04:41:44;4.93;;;3.42;;
10056;SDS011;5068;51.286;7.518;2023-04-24T04:43:21;4.57;;;3.22;;
10056;SDS011;5068;51.286;7.518;2023-04-24T04:44:57;5.13;;;3.63;;
10056;SDS011;5068;51.286;7.518;2023-04-24T04:46:39;6.40;;;3.83;;
10056;SDS011;5068;51.286;7.518;2023-04-24T04:48:23;5.53;;;3.25;;
10056;SDS011;5068;51.286;7.518;2023-04-24T04:49:56;4.85;;;3.50;;
10056;SDS011;5068;51.286;7.518;2023-04-24T04:51:31;4.90;;;3.50;;
10056;SDS011;5068;51.286;7.518;2023-04-24T04:53:05;5.22;;;3.38;;
10056;SDS011;5068;51.286;7.518;2023-04-24T04:54:41;5.68;;;4.07;;
10056;SDS011;5068;51.286;7.518;2023-04-24T04:56:15;4.93;;;3.45;;
10056;SDS011;5068;51.286;7.518;2023-04-24T04:57:50;4.53;;;3.20;;
10056;SDS011;5068;51.286;7.518;2023-04-24T04:59:24;7.22;;;3.80;;
10056;SDS011;5068;51.286;7.518;2023-04-24T05:01:04;3.83;;;3.00;;
10056;SDS011;5068;51.286;7.518;2023-04-24T05:02:43;4.75;;;3.53;;
10056;SDS011;5068;51.286;7.518;2023-04-24T05:04:19;5.03;;;3.50;;
10056;SDS011;5068;51.286;7.518;2023-04-24T05:07:26;4.00;;;3.08;;
10056;SDS011;5068;51.286;7.518;2023-04-24T05:09:00;4.47;;;2.92;;
10056;SDS011;5068;51.286;7.518;2023-04-24T05:10:50;4.32;;;3.25;;
10056;SDS011;5068;51.286;7.518;2023-04-24T05:12:23;4.63;;;3.50;;
10056;SDS011;5068;51.286;7.518;2023-04-24T05:13:57;4.18;;;3.03;;
10056;SDS011;5068;51.286;7.518;2023-04-24T05:15:38;4.03;;;2.97;;
10056;SDS011;5068;51.286;7.518;2023-04-24T05:17:12;4.03;;;2.75;;
10056;SDS011;5068;51.286;7.518;2023-04-24T05:18:45;5.35;;;3.05;;
10056;SDS011;5068;51.286;7.518;2023-04-24T05:20:23;5.45;;;3.55;;
10056;SDS011;5068;51.286;7.518;2023-04-24T05:21:58;4.63;;;3.05;;
10056;SDS011;5068;51.286;7.518;2023-04-24T05:23:34;5.97;;;3.22;;
10056;SDS011;5068;51.286;7.518;2023-04-24T05:25:08;3.63;;;2.75;;
10056;SDS011;5068;51.286;7.518;2023-04-24T05:26:50;3.80;;;2.92;;
10056;SDS011;5068;51.286;7.518;2023-04-24T05:28:28;5.07;;;3.17;;
10056;SDS011;5068;51.286;7.518;2023-04-24T05:30:09;4.38;;;2.72;;
10056;SDS011;5068;51.286;7.518;2023-04-24T05:31:43;3.70;;;2.72;;
10056;SDS011;5068;51.286;7.518;2023-04-24T05:33:16;5.00;;;2.72;;
10056;SDS011;5068;51.286;7.518;2023-04-24T05:34:50;4.10;;;2.90;;
10056;SDS011;5068;51.286;7.518;2023-04-24T05:36:25;3.85;;;2.58;;
10056;SDS011;5068;51.286;7.518;2023-04-24T05:37:58;4.47;;;2.90;;
10056;SDS011;5068;51.286;7.518;2023-04-24T05:39:31;4.25;;;3.13;;
10056;SDS011;5068;51.286;7.518;2023-04-24T05:41:05;3.70;;;2.85;;
10056;SDS011;5068;51.286;7.518;2023-04-24T05:42:38;4.65;;;2.88;;
10056;SDS011;5068;51.286;7.518;2023-04-24T05:44:11;3.85;;;2.70;;
10056;SDS011;5068;51.286;7.518;2023-04-24T05:45:46;4.53;;;2.70;;
10056;SDS011;5068;51.286;7.518;2023-04-24T05:47:19;4.18;;;2.90;;
10056;SDS011;5068;51.286;7.518;2023-04-24T05:48:53;3.35;;;2.63;;
10056;SDS011;5068;51.286;7.518;2023-04-24T05:50:26;3.83;;;2.88;;
10056;SDS011;5068;51.286;7.518;2023-04-24T05:52:01;3.38;;;2.83;;
10056;SDS011;5068;51.286;7.518;2023-04-24T05:53:37;5.38;;;2.80;;
10056;SDS011;5068;51.286;7.518;2023-04-24T05:55:10;3.15;;;2.58;;
10056;SDS011;5068;51.286;7.518;2023-04-24T05:56:46;4.20;;;2.50;;
10056;SDS011;5068;51.286;7.518;2023-04-24T05:58:26;4.35;;;3.00;;
10056;SDS011;5068;51.286;7.518;2023-04-24T06:00:00;5.35;;;2.78;;
10056;SDS011;5068;51.286;7.518;2023-04-24T06:01:33;3.38;;;2.60;;
10056;SDS011;5068;51.286;7.518;2023-04-24T06:03:15;4.35;;;2.58;;
10056;SDS011;5068;51.286;7.518;2023-04-24T06:04:51;4.15;;;2.90;;
10056;SDS011;5068;51.286;7.518;2023-04-24T06:06:25;4.32;;;3.10;;
10056;SDS011;5068;51.286;7.518;2023-04-24T06:08:00;3.83;;;2.80;;
10056;SDS011;5068;51.286;7.518;2023-04-24T06:09:37;3.63;;;2.60;;
10056;SDS011;5068;51.286;7.518;2023-04-24T06:11:11;4.07;;;2.53;;
10056;SDS011;5068;51.286;7.518;2023-04-24T06:12:45;3.70;;;2.90;;
10056;SDS011;5068;51.286;7.518;2023-04-24T06:14:21;4.18;;;2.72;;
10056;SDS011;5068;51.286;7.518;2023-04-24T06:16:14;4.82;;;2.70;;
10056;SDS011;5068;51.286;7.518;2023-04-24T06:17:54;3.80;;;2.45;;
10056;SDS011;5068;51.286;7.518;2023-04-24T06:19:27;4.25;;;2.60;;
10056;SDS011;5068;51.286;7.518;2023-04-24T06:21:00;3.65;;;2.67;;
10056;SDS011;5068;51.286;7.518;2023-04-24T06:22:34;2.80;;;2.50;;
10056;SDS011;5068;51.286;7.518;2023-04-24T06:24:09;4.05;;;3.20;;
10056;SDS011;5068;51.286;7.518;2023-04-24T06:25:43;4.60;;;2.38;;
10056;SDS011;5068;51.286;7.518;2023-04-24T06:27:16;3.70;;;2.67;;
10056;SDS011;5068;51.286;7.518;2023-04-24T06:28:50;2.97;;;2.38;;
10056;SDS011;5068;51.286;7.518;2023-04-24T06:30:25;3.58;;;2.83;;
10056;SDS011;5068;51.286;7.518;2023-04-24T06:31:59;3.60;;;2.53;;
10056;SDS011;5068;51.286;7.518;2023-04-24T06:33:33;4.78;;;3.25;;
10056;SDS011;5068;51.286;7.518;2023-04-24T06:35:06;4.15;;;2.88;;
10056;SDS011;5068;51.286;7.518;2023-04-24T06:36:42;4.40;;;2.88;;
10056;SDS011;5068;51.286;7.518;2023-04-24T06:38:16;4.35;;;2.78;;
10056;SDS011;5068;51.286;7.518;2023-04-24T06:39:51;4.60;;;2.88;;
10056;SDS011;5068;51.286;7.518;2023-04-24T06:41:24;4.93;;;2.88;;
10056;SDS011;5068;51.286;7.518;2023-04-24T06:42:57;3.70;;;2.63;;
10056;SDS011;5068;51.286;7.518;2023-04-24T06:44:31;3.80;;;2.88;;
10056;SDS011;5068;51.286;7.518;2023-04-24T06:46:09;5.07;;;2.67;;
10056;SDS011;5068;51.286;7.518;2023-04-24T06:47:43;2.75;;;2.40;;
10056;SDS011;5068;51.286;7.518;2023-04-24T06:49:16;3.72;;;3.15;;
10056;SDS011;5068;51.286;7.518;2023-04-24T06:50:50;3.78;;;2.60;;
10056;SDS011;5068;51.286;7.518;2023-04-24T06:52:23;4.75;;;3.10;;
10056;SDS011;5068;51.286;7.518;2023-04-24T06:53:57;4.85;;;3.28;;
10056;SDS011;5068;51.286;7.518;2023-04-24T06:55:31;4.53;;;2.70;;
10056;SDS011;5068;51.286;7.518;2023-04-24T06:57:05;4.75;;;3.00;;
10056;SDS011;5068;51.286;7.518;2023-04-24T06:58:38;3.88;;;2.92;;
10056;SDS011;5068;51.286;7.518;2023-04-24T07:00:12;6.05;;;3.38;;
10056;SDS011;5068;51.286;7.518;2023-04-24T07:01:46;4.00;;;2.97;;
10056;SDS011;5068;51.286;7.518;2023-04-24T07:03:19;4.38;;;2.97;;
10056;SDS011;5068;51.286;7.518;2023-04-24T07:04:53;3.72;;;3.00;;
10056;SDS011;5068;51.286;7.518;2023-04-24T07:06:26;4.38;;;2.50;;
10056;SDS011;5068;51.286;7.518;2023-04-24T07:08:03;3.40;;;2.97;;
10056;SDS011;5068;51.286;7.518;2023-04-24T07:09:38;4.38;;;3.00;;
10056;SDS011;5068;51.286;7.518;2023-04-24T07:11:15;3.67;;;2.80;;
10056;SDS011;5068;51.286;7.518;2023-04-24T07:12:48;3.20;;;2.80;;
10056;SDS011;5068;51.286;7.518;2023-04-24T07:14:22;4.05;;;3.30;;
10056;SDS011;5068;51.286;7.518;2023-04-24T07:15:55;4.00;;;2.70;;
10056;SDS011;5068;51.286;7.518;2023-04-24T07:17:29;3.53;;;2.97;;
10056;SDS011;5068;51.286;7.518;2023-04-24T07:19:02;4.82;;;3.10;;
10056;SDS011;5068;51.286;7.518;2023-04-24T07:20:35;3.88;;;3.05;;
10056;SDS011;5068;51.286;7.518;2023-04-24T07:22:08;4.20;;;2.70;;
10056;SDS011;5068;51.286;7.518;2023-04-24T07:23:42;4.03;;;2.50;;
10056;SDS011;5068;51.286;7.518;2023-04-24T07:25:16;2.42;;;2.08;;
10056;SDS011;5068;51.286;7.518;2023-04-24T07:26:50;3.72;;;2.60;;
10056;SDS011;5068;51.286;7.518;2023-04-24T07:28:25;4.35;;;2.75;;
10056;SDS011;5068;51.286;7.518;2023-04-24T07:29:58;3.30;;;2.50;;
10056;SDS011;5068;51.286;7.518;2023-04-24T07:31:31;4.35;;;2.08;;
10056;SDS011;5068;51.286;7.518;2023-04-24T07:33:05;2.88;;;2.22;;
10056;SDS011;5068;51.286;7.518;2023-04-24T07:34:38;3.50;;;2.22;;
10056;SDS011;5068;51.286;7.518;2023-04-24T07:36:12;3.30;;;2.17;;
10056;SDS011;5068;51.286;7.518;2023-04-24T07:37:48;2.35;;;1.73;;
10056;SDS011;5068;51.286;7.518;2023-04-24T07:39:21;2.50;;;1.80;;
10056;SDS011;5068;51.286;7.518;2023-04-24T07:40:55;2.50;;;1.98;;
10056;SDS011;5068;51.286;7.518;2023-04-24T07:42:30;2.00;;;1.75;;
10056;SDS011;5068;51.286;7.518;2023-04-24T07:44:05;2.22;;;1.67;;
10056;SDS011;5068;51.286;7.518;2023-04-24T07:45:39;2.20;;;1.70;;
10056;SDS011;5068;51.286;7.518;2023-04-24T07:47:13;2.45;;;1.70;;
10056;SDS011;5068;51.286;7.518;2023-04-24T07:48:47;1.58;;;1.20;;
10056;SDS011;5068;51.286;7.518;2023-04-24T07:50:32;1.85;;;1.40;;
10056;SDS011;5068;51.286;7.518;2023-04-24T07:52:06;1.75;;;1.20;;
10056;SDS011;5068;51.286;7.518;2023-04-24T07:53:39;1.40;;;0.93;;
10056;SDS011;5068;51.286;7.518;2023-04-24T07:55:12;1.42;;;0.90;;
10056;SDS011;5068;51.286;7.518;2023-04-24T07:56:45;1.95;;;1.00;;
10056;SDS011;5068;51.286;7.518;2023-04-24T07:58:20;1.42;;;0.80;;
10056;SDS011;5068;51.286;7.518;2023-04-24T07:59:53;1.33;;;0.70;;
10056;SDS011;5068;51.286;7.518;2023-04-24T08:01:26;1.00;;;0.50;;
10056;SDS011;5068;51.286;7.518;2023-04-24T08:02:59;0.77;;;0.45;;
10056;SDS011;5068;51.286;7.518;2023-04-24T08:04:33;1.20;;;0.40;;
10056;SDS011;5068;51.286;7.518;2023-04-24T08:06:07;0.93;;;0.43;;
10056;SDS011;5068;51.286;7.518;2023-04-24T08:07:40;0.90;;;0.50;;
10056;SDS011;5068;51.286;7.518;2023-04-24T08:09:14;1.00;;;0.43;;
10056;SDS011;5068;51.286;7.518;2023-04-24T08:10:47;1.00;;;0.52;;
10056;SDS011;5068;51.286;7.518;2023-04-24T08:12:21;0.80;;;0.50;;
10056;SDS011;5068;51.286;7.518;2023-04-24T08:13:55;0.73;;;0.30;;
10056;SDS011;5068;51.286;7.518;2023-04-24T08:15:29;1.02;;;0.40;;
10056;SDS011;5068;51.286;7.518;2023-04-24T08:17:02;1.38;;;0.45;;
10056;SDS011;5068;51.286;7.518;2023-04-24T08:18:35;0.40;;;0.30;;
10056;SDS011;5068;51.286;7.518;2023-04-24T08:20:10;0.40;;;0.30;;
10056;SDS011;5068;51.286;7.518;2023-04-24T08:21:45;0.20;;;0.20;;
10056;SDS011;5068;51.286;7.518;2023-04-24T08:23:19;0.85;;;0.30;;
10056;SDS011;5068;51.286;7.518;2023-04-24T08:24:53;0.65;;;0.30;;
10056;SDS011;5068;51.286;7.518;2023-04-24T08:26:27;0.65;;;0.40;;
10056;SDS011;5068;51.286;7.518;2023-04-24T08:28:01;0.35;;;0.20;;
10056;SDS011;5068;51.286;7.518;2023-04-24T08:29:37;0.47;;;0.30;;
10056;SDS011;5068;51.286;7.518;2023-04-24T08:31:10;0.50;;;0.28;;
10056;SDS011;5068;51.286;7.518;2023-04-24T08:32:43;0.57;;;0.20;;
10056;SDS011;5068;51.286;7.518;2023-04-24T08:34:17;0.30;;;0.20;;
10056;SDS011;5068;51.286;7.518;2023-04-24T08:35:50;0.15;;;0.03;;
10056;SDS011;5068;51.286;7.518;2023-04-24T08:37:25;0.52;;;0.20;;
10056;SDS011;5068;51.286;7.518;2023-04-24T08:38:59;0.15;;;0.10;;
10056;SDS011;5068;51.286;7.518;2023-04-24T08:40:33;0.63;;;0.10;;
10056;SDS011;5068;51.286;7.518;2023-04-24T08:42:07;0.25;;;0.10;;
10056;SDS011;5068;51.286;7.518;2023-04-24T08:43:41;0.25;;;0.10;;
10056;SDS011;5068;51.286;7.518;2023-04-24T08:45:16;0.17;;;0.10;;
10056;SDS011;5068;51.286;7.518;2023-04-24T08:46:49;0.10;;;0.00;;
10056;SDS011;5068;51.286;7.518;2023-04-24T08:48:25;0.22;;;0.17;;
10056;SDS011;5068;51.286;7.518;2023-04-24T08:50:02;0.15;;;0.08;;
10056;SDS011;5068;51.286;7.518;2023-04-24T08:51:38;0.90;;;0.00;;
10056;SDS011;5068;51.286;7.518;2023-04-24T08:53:12;0.20;;;0.00;;
10056;SDS011;5068;51.286;7.518;2023-04-24T08:54:46;0.00;;;0.00;;
10056;SDS011;5068;51.286;7.518;2023-04-24T08:56:21;0.10;;;0.00;;
10056;SDS011;5068;51.286;7.518;2023-04-24T08:57:55;0.17;;;0.08;;
10056;SDS011;5068;51.286;7.518;2023-04-24T08:59:30;0.10;;;0.00;;
10056;SDS011;5068;51.286;7.518;2023-04-24T09:01:05;0.00;;;0.00;;
10056;SDS011;5068;51.286;7.518;2023-04-24T09:02:40;0.75;;;0.10;;
10056;SDS011;5068;51.286;7.518;2023-04-24T09:04:16;0.20;;;0.10;;
10056;SDS011;5068;51.286;7.518;2023-04-24T09:05:53;1.13;;;0.20;;
10056;SDS011;5068;51.286;7.518;2023-04-24T09:07:29;0.10;;;0.03;;
10056;SDS011;5068;51.286;7.518;2023-04-24T09:09:06;0.30;;;0.00;;
10056;SDS011;5068;51.286;7.518;2023-04-24T09:10:42;0.10;;;0.03;;
10056;SDS011;5068;51.286;7.518;2023-04-24T09:12:18;0.32;;;0.10;;
10056;SDS011;5068;51.286;7.518;2023-04-24T09:13:52;0.40;;;0.20;;
10056;SDS011;5068;51.286;7.518;2023-04-24T09:15:26;0.30;;;0.10;;
10056;SDS011;5068;51.286;7.518;2023-04-24T09:17:02;0.20;;;0.10;;
10056;SDS011;5068;51.286;7.518;2023-04-24T09:18:35;0.20;;;0.10;;
10056;SDS011;5068;51.286;7.518;2023-04-24T09:20:08;0.25;;;0.10;;
10056;SDS011;5068;51.286;7.518;2023-04-24T09:21:45;2.05;;;0.20;;
10056;SDS011;5068;51.286;7.518;2023-04-24T09:23:19;0.35;;;0.20;;
10056;SDS011;5068;51.286;7.518;2023-04-24T09:24:59;0.30;;;0.20;;
10056;SDS011;5068;51.286;7.518;2023-04-24T09:26:38;0.60;;;0.22;;
10056;SDS011;5068;51.286;7.518;2023-04-24T09:28:11;0.57;;;0.20;;
10056;SDS011;5068;51.286;7.518;2023-04-24T09:29:57;1.70;;;0.20;;
10056;SDS011;5068;51.286;7.518;2023-04-24T09:31:31;0.45;;;0.20;;
10056;SDS011;5068;51.286;7.518;2023-04-24T09:33:12;0.93;;;0.17;;
10056;SDS011;5068;51.286;7.518;2023-04-24T09:34:47;1.20;;;0.30;;
10056;SDS011;5068;51.286;7.518;2023-04-24T09:36:26;0.75;;;0.10;;
10056;SDS011;5068;51.286;7.518;2023-04-24T09:38:01;0.40;;;0.15;;
10056;SDS011;5068;51.286;7.518;2023-04-24T09:39:34;0.03;;;0.00;;
10056;SDS011;5068;51.286;7.518;2023-04-24T09:41:08;1.45;;;0.20;;
10056;SDS011;5068;51.286;7.518;2023-04-24T09:42:46;0.00;;;0.00;;
10056;SDS011;5068;51.286;7.518;2023-04-24T09:44:28;0.10;;;0.05;;